createdAt,value
2023-04-15T00:00:35.613Z,11.15
2023-04-15T00:03:02.472Z,11.16
2023-04-15T00:05:32.704Z,11.17
2023-04-15T00:07:59.900Z,11.18
2023-04-15T00:10:26.514Z,11.19
2023-04-15T00:12:53.324Z,11.20
2023-04-15T00:15:20.050Z,11.22
2023-04-15T00:17:47.168Z,11.24
2023-04-15T00:20:14.582Z,11.26
2023-04-15T00:22:41.721Z,11.26
2023-04-15T00:25:09.588Z,11.24
2023-04-15T00:27:36.286Z,11.20
2023-04-15T00:30:04.223Z,11.15
2023-04-15T00:32:31.386Z,11.07
2023-04-15T00:34:58.631Z,11.00
2023-04-15T00:37:25.633Z,10.94
2023-04-15T00:39:52.586Z,10.89
2023-04-15T00:42:21.793Z,10.84
2023-04-15T00:44:48.946Z,10.82
2023-04-15T00:47:17.546Z,10.80
2023-04-15T00:49:44.332Z,10.79
2023-04-15T00:52:11.021Z,10.77
2023-04-15T00:54:37.751Z,10.75
2023-04-15T00:57:07.193Z,10.71
2023-04-15T00:59:34.194Z,10.68
2023-04-15T01:02:01.504Z,10.65
2023-04-15T01:04:29.625Z,10.62
2023-04-15T01:06:56.325Z,10.58
2023-04-15T01:09:23.445Z,10.54
2023-04-15T01:11:51.087Z,10.50
2023-04-15T01:14:17.764Z,10.45
2023-04-15T01:16:45.442Z,10.38
2023-04-15T01:19:14.603Z,10.30
2023-04-15T01:21:41.686Z,10.23
2023-04-15T01:24:11.172Z,10.18
2023-04-15T01:26:39.633Z,10.15
2023-04-15T01:29:08.551Z,10.12
2023-04-15T01:31:35.588Z,10.08
2023-04-15T01:34:02.263Z,10.05
2023-04-15T01:36:29.885Z,10.04
2023-04-15T01:38:57.776Z,10.04
2023-04-15T01:41:28.428Z,10.03
2023-04-15T01:43:55.339Z,10.03
2023-04-15T01:46:22.937Z,10.01
2023-04-15T01:48:49.816Z,9.96
2023-04-15T01:51:16.674Z,9.93
2023-04-15T01:53:43.472Z,9.91
2023-04-15T01:56:10.982Z,9.90
2023-04-15T01:58:37.724Z,9.89
2023-04-15T02:01:04.838Z,9.91
2023-04-15T02:03:32.002Z,9.92
2023-04-15T02:05:58.779Z,9.91
2023-04-15T02:08:25.506Z,9.91
2023-04-15T02:10:52.799Z,9.90
2023-04-15T02:13:20.010Z,9.90
2023-04-15T02:15:50.751Z,9.89
2023-04-15T02:18:19.117Z,9.85
2023-04-15T02:20:47.013Z,9.83
2023-04-15T02:23:13.887Z,9.82
2023-04-15T02:25:43.737Z,9.82
2023-04-15T02:28:21.238Z,9.79
2023-04-15T02:30:52.952Z,9.77
2023-04-15T02:33:20.234Z,9.76
2023-04-15T02:35:47.557Z,9.67
2023-04-15T02:38:16.859Z,9.59
2023-04-15T02:40:43.761Z,9.55
2023-04-15T02:43:10.871Z,9.52
2023-04-15T02:45:37.597Z,9.50
2023-04-15T02:48:06.718Z,9.49
2023-04-15T02:50:33.633Z,9.48
2023-04-15T02:53:01.657Z,9.48
2023-04-15T02:55:29.373Z,9.47
2023-04-15T02:57:56.244Z,9.47
2023-04-15T03:00:25.295Z,9.47
2023-04-15T03:02:56.801Z,9.47
2023-04-15T03:05:25.463Z,9.48
2023-04-15T03:07:52.404Z,9.45
2023-04-15T03:10:20.109Z,9.43
2023-04-15T03:12:47.302Z,9.42
2023-04-15T03:15:17.693Z,9.42
2023-04-15T03:17:49.304Z,9.41
2023-04-15T03:20:16.051Z,9.37
2023-04-15T03:22:42.833Z,9.34
2023-04-15T03:25:09.737Z,9.29
2023-04-15T03:27:38.113Z,9.26
2023-04-15T03:30:05.129Z,9.22
2023-04-15T03:32:32.753Z,9.19
2023-04-15T03:34:59.361Z,9.18
2023-04-15T03:37:26.438Z,9.15
2023-04-15T03:39:53.015Z,9.13
2023-04-15T03:42:19.645Z,9.10
2023-04-15T03:44:46.499Z,9.07
2023-04-15T03:47:13.223Z,9.01
2023-04-15T03:49:39.770Z,8.96
2023-04-15T03:52:06.416Z,8.91
2023-04-15T03:54:33.124Z,8.80
2023-04-15T03:56:59.786Z,8.73
2023-04-15T03:59:26.354Z,8.68
2023-04-15T04:01:52.972Z,8.61
2023-04-15T04:04:19.756Z,8.56
2023-04-15T04:06:46.536Z,8.49
2023-04-15T04:09:13.192Z,8.44
2023-04-15T04:11:39.775Z,8.39
2023-04-15T04:14:06.578Z,8.34
2023-04-15T04:16:33.307Z,8.25
2023-04-15T04:19:00.231Z,8.18
2023-04-15T04:21:27.156Z,8.11
2023-04-15T04:23:53.837Z,8.12
2023-04-15T04:26:20.772Z,8.15
2023-04-15T04:28:47.420Z,8.18
2023-04-15T04:31:14.155Z,8.11
2023-04-15T04:33:41.031Z,8.09
2023-04-15T04:36:07.935Z,8.12
2023-04-15T04:38:34.607Z,8.16
2023-04-15T04:41:01.248Z,8.21
2023-04-15T04:43:27.938Z,8.27
2023-04-15T04:45:54.582Z,8.32
2023-04-15T04:48:21.327Z,8.34
2023-04-15T04:50:48.137Z,8.37
2023-04-15T04:53:15.101Z,8.40
2023-04-15T04:55:41.700Z,8.46
2023-04-15T04:58:08.475Z,8.50
2023-04-15T05:00:35.315Z,8.59
2023-04-15T05:03:02.068Z,8.68
2023-04-15T05:05:28.835Z,8.71
2023-04-15T05:07:55.631Z,8.71
2023-04-15T05:10:22.285Z,8.73
2023-04-15T05:12:48.874Z,8.58
2023-04-15T05:15:15.630Z,8.39
2023-04-15T05:17:42.252Z,8.30
2023-04-15T05:20:09.812Z,8.22
2023-04-15T05:22:37.115Z,8.15
2023-04-15T05:25:04.122Z,8.20
2023-04-15T05:27:30.933Z,8.31
2023-04-15T05:29:57.576Z,8.45
2023-04-15T05:32:24.386Z,8.56
2023-04-15T05:34:51.501Z,8.62
2023-04-15T05:37:20.867Z,8.69
2023-04-15T05:39:48.445Z,8.83
2023-04-15T05:42:15.479Z,9.03
2023-04-15T05:44:42.536Z,9.22
2023-04-15T05:47:10.335Z,9.40
2023-04-15T05:49:37.223Z,9.59
2023-04-15T05:52:04.002Z,9.77
2023-04-15T05:54:30.753Z,9.95
2023-04-15T05:56:58.336Z,10.16
2023-04-15T05:59:24.979Z,10.37
2023-04-15T06:01:52.251Z,10.58
2023-04-15T06:04:19.111Z,10.78
2023-04-15T06:06:46.310Z,10.96
2023-04-15T06:09:13.039Z,11.17
2023-04-15T06:11:41.430Z,11.34
2023-04-15T06:14:08.438Z,11.50
2023-04-15T06:16:36.881Z,11.62
2023-04-15T06:19:04.022Z,11.70
2023-04-15T06:21:31.528Z,11.77
2023-04-15T06:24:01.497Z,11.89
2023-04-15T06:26:28.546Z,12.07
2023-04-15T06:28:55.701Z,12.23
2023-04-15T06:31:22.724Z,12.39
2023-04-15T06:33:49.754Z,12.58
2023-04-15T06:36:16.719Z,12.75
2023-04-15T06:38:43.455Z,12.93
2023-04-15T06:41:10.334Z,13.12
2023-04-15T06:43:36.996Z,13.33
2023-04-15T06:46:03.835Z,13.42
2023-04-15T06:48:30.686Z,13.56
2023-04-15T06:50:58.407Z,13.76
2023-04-15T06:53:28.081Z,13.92
2023-04-15T06:55:55.157Z,14.03
2023-04-15T06:58:22.077Z,14.16
2023-04-15T07:00:49.247Z,14.27
2023-04-15T07:03:16.241Z,14.23
2023-04-15T07:05:43.570Z,14.15
2023-04-15T07:08:10.531Z,14.20
2023-04-15T07:10:37.355Z,14.29
2023-04-15T07:13:04.890Z,14.40
2023-04-15T07:15:31.469Z,14.58
2023-04-15T07:17:58.244Z,14.83
2023-04-15T07:20:25.178Z,14.98
2023-04-15T07:22:51.985Z,15.09
2023-04-15T07:25:19.141Z,15.25
2023-04-15T07:27:45.977Z,15.48
2023-04-15T07:30:13.320Z,15.72
2023-04-15T07:32:40.664Z,16.00
2023-04-15T07:35:08.050Z,16.12
2023-04-15T07:37:34.790Z,16.32
2023-04-15T07:40:01.988Z,16.49
2023-04-15T07:42:29.413Z,16.63
2023-04-15T07:44:56.869Z,16.83
2023-04-15T07:47:23.674Z,17.13
2023-04-15T07:49:51.569Z,17.43
2023-04-15T07:52:18.660Z,17.67
2023-04-15T07:54:45.685Z,17.81
2023-04-15T07:57:12.266Z,18.02
2023-04-15T07:59:38.882Z,18.19
2023-04-15T08:02:05.557Z,18.18
2023-04-15T08:04:32.750Z,18.17
2023-04-15T08:06:59.983Z,18.30
2023-04-15T08:09:27.467Z,18.39
2023-04-15T08:11:54.288Z,18.51
2023-04-15T08:14:21.162Z,18.68
2023-04-15T08:16:47.828Z,18.96
2023-04-15T08:19:14.535Z,19.26
2023-04-15T08:21:41.179Z,19.38
2023-04-15T08:24:08.326Z,19.38
2023-04-15T08:26:34.939Z,19.54
2023-04-15T08:29:01.892Z,19.67
2023-04-15T08:31:30.247Z,19.88
2023-04-15T08:33:57.899Z,20.09
2023-04-15T08:36:24.473Z,20.00
2023-04-15T08:38:51.315Z,19.66
2023-04-15T08:41:23.687Z,19.62
2023-04-15T08:43:58.168Z,19.64
2023-04-15T08:46:25.641Z,19.48
2023-04-15T08:48:53.903Z,19.48
2023-04-15T08:51:21.481Z,19.66
2023-04-15T08:53:50.334Z,19.93
2023-04-15T08:56:18.545Z,20.00
2023-04-15T08:58:46.835Z,19.91
2023-04-15T09:01:13.937Z,19.94
2023-04-15T09:03:42.017Z,20.09
2023-04-15T09:06:09.052Z,20.36
2023-04-15T09:08:35.988Z,20.63
2023-04-15T09:11:05.729Z,20.48
2023-04-15T09:13:32.513Z,20.57
2023-04-15T09:16:01.605Z,20.62
2023-04-15T09:18:33.619Z,20.58
2023-04-15T09:21:09.059Z,20.67
2023-04-15T09:23:36.557Z,20.94
2023-04-15T09:26:03.896Z,21.03
2023-04-15T09:28:31.169Z,20.90
2023-04-15T09:31:02.792Z,20.90
2023-04-15T09:33:30.321Z,21.03
2023-04-15T09:35:58.539Z,21.36
2023-04-15T09:38:25.163Z,21.78
2023-04-15T09:40:52.183Z,22.08
2023-04-15T09:43:18.795Z,22.36
2023-04-15T09:45:53.982Z,22.62
2023-04-15T09:48:27.356Z,22.91
2023-04-15T09:50:54.813Z,23.20
2023-04-15T09:53:23.247Z,23.44
2023-04-15T09:55:52.456Z,23.46
2023-04-15T09:58:27.532Z,23.20
2023-04-15T10:00:57.030Z,23.28
2023-04-15T10:03:27.701Z,23.40
2023-04-15T10:05:57.294Z,23.35
2023-04-15T10:08:27.514Z,23.07
2023-04-15T10:10:54.955Z,22.40
2023-04-15T10:13:24.595Z,22.07
2023-04-15T10:16:05.349Z,21.99
2023-04-15T10:18:36.128Z,21.88
2023-04-15T10:21:02.773Z,21.83
2023-04-15T10:23:29.470Z,22.04
2023-04-15T10:25:56.714Z,22.42
2023-04-15T10:28:23.356Z,22.73
2023-04-15T10:30:50.313Z,22.81
2023-04-15T10:33:20.652Z,22.70
2023-04-15T10:35:49.156Z,22.45
2023-04-15T10:38:33.208Z,22.10
2023-04-15T10:41:31.310Z,21.99
2023-04-15T10:44:04.433Z,22.08
2023-04-15T10:47:01.184Z,21.70
2023-04-15T10:49:27.967Z,21.44
2023-04-15T10:51:59.220Z,21.28
2023-04-15T10:54:25.812Z,21.04
2023-04-15T10:57:07.850Z,20.87
2023-04-15T10:59:59.664Z,20.85
2023-04-15T11:02:41.255Z,21.05
2023-04-15T11:05:09.151Z,21.18
2023-04-15T11:07:52.239Z,21.29
2023-04-15T11:10:20.960Z,21.18
2023-04-15T11:12:51.934Z,21.06
2023-04-15T11:15:37.944Z,21.28
2023-04-15T11:18:24.828Z,21.47
2023-04-15T11:20:59.749Z,21.34
2023-04-15T11:23:31.408Z,21.10
2023-04-15T11:25:59.506Z,20.92
2023-04-15T11:28:28.254Z,20.87
2023-04-15T11:30:56.233Z,20.82
2023-04-15T11:33:24.614Z,20.59
2023-04-15T11:35:56.661Z,20.33
2023-04-15T11:38:23.423Z,20.21
2023-04-15T11:40:52.680Z,20.14
2023-04-15T11:43:22.097Z,20.22
2023-04-15T11:45:51.506Z,20.31
2023-04-15T11:48:19.301Z,20.46
2023-04-15T11:50:46.481Z,20.70
2023-04-15T11:53:14.162Z,20.92
2023-04-15T11:55:47.087Z,21.05
2023-04-15T11:58:23.383Z,20.98
2023-04-15T12:00:52.455Z,20.84
2023-04-15T12:03:25.014Z,20.98
2023-04-15T12:06:16.748Z,21.50
2023-04-15T12:08:56.254Z,21.81
2023-04-15T12:11:47.265Z,21.57
2023-04-15T12:14:22.984Z,21.10
2023-04-15T12:16:53.953Z,20.44
2023-04-15T12:19:29.480Z,19.99
2023-04-15T12:22:01.488Z,19.53
2023-04-15T12:24:31.559Z,19.09
2023-04-15T12:27:03.135Z,18.78
2023-04-15T12:29:31.105Z,18.54
2023-04-15T12:32:03.959Z,18.32
2023-04-15T12:34:33.124Z,18.25
2023-04-15T12:37:02.048Z,18.16
2023-04-15T12:39:31.585Z,18.03
2023-04-15T12:42:00.536Z,17.98
2023-04-15T12:44:28.084Z,17.99
2023-04-15T12:46:55.077Z,18.04
2023-04-15T12:49:23.242Z,18.05
2023-04-15T12:51:51.620Z,18.00
2023-04-15T12:54:18.885Z,18.04
2023-04-15T12:56:46.654Z,18.45
2023-04-15T12:59:14.114Z,19.11
2023-04-15T13:01:41.504Z,19.82
2023-04-15T13:04:08.716Z,20.39
2023-04-15T13:06:36.392Z,20.78
2023-04-15T13:09:05.276Z,21.10
2023-04-15T13:11:33.982Z,21.09
2023-04-15T13:14:02.391Z,20.99
2023-04-15T13:16:29.728Z,20.87
2023-04-15T13:18:56.449Z,20.72
2023-04-15T13:21:23.699Z,20.47
2023-04-15T13:23:52.968Z,20.24
2023-04-15T13:26:19.746Z,19.92
2023-04-15T13:28:46.791Z,19.71
2023-04-15T13:31:13.726Z,19.57
2023-04-15T13:33:40.562Z,19.39
2023-04-15T13:36:07.435Z,19.23
2023-04-15T13:38:34.007Z,19.32
2023-04-15T13:41:00.835Z,19.71
2023-04-15T13:43:27.638Z,19.98
2023-04-15T13:45:54.381Z,20.18
2023-04-15T13:48:21.107Z,20.38
2023-04-15T13:50:47.681Z,20.54
2023-04-15T13:53:14.338Z,20.50
2023-04-15T13:55:42.700Z,20.30
2023-04-15T13:58:10.282Z,20.03
2023-04-15T14:00:37.440Z,19.86
2023-04-15T14:03:05.038Z,19.77
2023-04-15T14:05:32.716Z,19.58
2023-04-15T14:08:00.519Z,19.60
2023-04-15T14:10:27.202Z,19.72
2023-04-15T14:12:53.884Z,19.79
2023-04-15T14:15:21.211Z,19.79
2023-04-15T14:17:47.966Z,19.73
2023-04-15T14:20:16.742Z,19.68
2023-04-15T14:22:44.287Z,19.64
2023-04-15T14:25:15.121Z,19.62
2023-04-15T14:27:50.070Z,19.49
2023-04-15T14:30:16.748Z,19.43
2023-04-15T14:32:43.412Z,19.42
2023-04-15T14:35:10.139Z,19.25
2023-04-15T14:37:36.764Z,19.15
2023-04-15T14:40:03.662Z,19.08
2023-04-15T14:42:30.459Z,18.97
2023-04-15T14:44:57.063Z,18.92
2023-04-15T14:47:24.533Z,18.94
2023-04-15T14:49:51.390Z,18.94
2023-04-15T14:52:18.014Z,18.89
2023-04-15T14:54:44.694Z,18.80
2023-04-15T14:57:11.323Z,18.74
2023-04-15T14:59:37.985Z,18.65
2023-04-15T15:02:04.713Z,18.45
2023-04-15T15:04:33.485Z,18.27
2023-04-15T15:07:00.797Z,18.16
2023-04-15T15:09:27.530Z,18.13
2023-04-15T15:11:54.130Z,18.02
2023-04-15T15:14:20.774Z,17.90
2023-04-15T15:16:47.648Z,17.89
2023-04-15T15:19:14.424Z,17.89
2023-04-15T15:21:41.045Z,17.89
2023-04-15T15:24:07.744Z,17.81
2023-04-15T15:26:34.485Z,17.75
2023-04-15T15:29:01.347Z,17.66
2023-04-15T15:31:28.121Z,17.63
2023-04-15T15:33:54.776Z,17.58
2023-04-15T15:36:21.382Z,17.49
2023-04-15T15:38:48.019Z,17.49
2023-04-15T15:41:15.798Z,17.47
2023-04-15T15:43:42.503Z,17.41
2023-04-15T15:46:09.262Z,17.44
2023-04-15T15:48:36.108Z,17.46
2023-04-15T15:51:04.249Z,17.45
2023-04-15T15:53:31.326Z,17.41
2023-04-15T15:55:58.074Z,17.32
2023-04-15T15:58:24.802Z,17.30
2023-04-15T16:00:51.462Z,17.26
2023-04-15T16:03:18.655Z,17.22
2023-04-15T16:05:46.252Z,17.20
2023-04-15T16:08:12.865Z,17.18
2023-04-15T16:10:39.493Z,17.12
2023-04-15T16:13:06.094Z,17.05
2023-04-15T16:15:32.762Z,17.03
2023-04-15T16:17:59.402Z,17.04
2023-04-15T16:20:26.617Z,17.06
2023-04-15T16:22:53.274Z,17.05
2023-04-15T16:25:20.088Z,17.07
2023-04-15T16:27:58.878Z,17.07
2023-04-15T16:30:30.172Z,17.04
2023-04-15T16:32:57.331Z,16.96
2023-04-15T16:35:24.058Z,16.94
2023-04-15T16:37:51.924Z,16.90
2023-04-15T16:40:18.769Z,16.83
2023-04-15T16:42:45.674Z,16.79
2023-04-15T16:45:12.594Z,16.74
2023-04-15T16:47:39.308Z,16.67
2023-04-15T16:50:06.814Z,16.61
2023-04-15T16:52:33.645Z,16.57
2023-04-15T16:55:00.446Z,16.49
2023-04-15T16:58:00.908Z,16.44
2023-04-15T17:00:14.804Z,16.42
2023-04-15T17:02:41.533Z,16.42
2023-04-15T17:05:08.778Z,16.43
2023-04-15T17:07:35.687Z,16.42
2023-04-15T17:10:02.286Z,16.35
2023-04-15T17:12:30.069Z,16.30
2023-04-15T17:14:57.021Z,16.30
2023-04-15T17:17:23.653Z,16.30
2023-04-15T17:19:50.322Z,16.27
2023-04-15T17:22:17.140Z,16.24
2023-04-15T17:24:43.759Z,16.13
2023-04-15T17:27:10.585Z,16.03
2023-04-15T17:29:37.246Z,15.93
2023-04-15T17:32:04.144Z,15.81
2023-04-15T17:34:50.252Z,15.65
2023-04-15T17:37:17.954Z,15.52
2023-04-15T17:39:44.606Z,15.43
2023-04-15T17:42:11.561Z,15.39
2023-04-15T17:44:38.364Z,15.38
2023-04-15T17:47:05.383Z,15.35
2023-04-15T17:49:34.188Z,15.33
2023-04-15T17:52:01.335Z,15.29
2023-04-15T17:54:28.351Z,15.27
2023-04-15T17:56:56.656Z,15.23
2023-04-15T17:59:23.777Z,15.21
2023-04-15T18:01:50.576Z,15.15
2023-04-15T18:04:17.508Z,15.10
2023-04-15T18:06:45.305Z,15.01
2023-04-15T18:09:13.414Z,14.95
2023-04-15T18:11:41.046Z,14.90
2023-04-15T18:14:07.845Z,14.85
2023-04-15T18:16:34.704Z,14.83
2023-04-15T18:19:01.890Z,14.79
2023-04-15T18:21:28.482Z,14.76
2023-04-15T18:23:55.370Z,14.70
2023-04-15T18:26:22.090Z,14.67
2023-04-15T18:28:48.702Z,14.64
2023-04-15T18:31:15.753Z,14.60
2023-04-15T18:33:42.467Z,14.55
2023-04-15T18:36:10.418Z,14.52
2023-04-15T18:38:37.133Z,14.49
2023-04-15T18:41:05.417Z,14.46
2023-04-15T18:43:32.507Z,14.43
2023-04-15T18:45:59.748Z,14.41
2023-04-15T18:48:27.069Z,14.38
2023-04-15T18:50:54.208Z,14.34
2023-04-15T18:53:21.725Z,14.28
2023-04-15T18:55:51.585Z,14.25
2023-04-15T18:58:18.387Z,14.19
2023-04-15T19:00:45.098Z,14.14
2023-04-15T19:03:11.826Z,14.12
2023-04-15T19:05:38.576Z,14.07
2023-04-15T19:08:05.485Z,14.03
2023-04-15T19:10:33.845Z,13.99
2023-04-15T19:13:00.565Z,13.99
2023-04-15T19:15:27.422Z,13.95
2023-04-15T19:17:54.484Z,13.93
2023-04-15T19:20:21.250Z,13.92
2023-04-15T19:22:48.214Z,13.91
2023-04-15T19:25:14.968Z,13.92
2023-04-15T19:27:41.537Z,13.92
2023-04-15T19:30:08.877Z,13.91
2023-04-15T19:32:35.918Z,13.93
2023-04-15T19:35:02.590Z,13.96
2023-04-15T19:37:29.299Z,13.96
2023-04-15T19:39:56.193Z,13.95
2023-04-15T19:42:22.839Z,13.94
2023-04-15T19:44:49.487Z,13.93
2023-04-15T19:47:16.603Z,13.92
2023-04-15T19:49:43.537Z,13.92
2023-04-15T19:52:10.236Z,13.94
2023-04-15T19:54:37.138Z,13.93
2023-04-15T19:57:04.098Z,13.90
2023-04-15T19:59:30.811Z,13.89
2023-04-15T20:01:57.730Z,13.85
2023-04-15T20:04:24.455Z,13.81
2023-04-15T20:06:51.349Z,13.78
2023-04-15T20:09:17.980Z,13.75
2023-04-15T20:12:09.715Z,13.74
2023-04-15T20:14:31.279Z,13.74
2023-04-15T20:16:57.910Z,13.72
2023-04-15T20:19:24.589Z,13.70
2023-04-15T20:21:52.521Z,13.69
2023-04-15T20:24:20.407Z,13.67
2023-04-15T20:26:47.425Z,13.67
2023-04-15T20:29:14.134Z,13.67
2023-04-15T20:31:41.201Z,13.65
2023-04-15T20:34:09.975Z,13.64
2023-04-15T20:36:38.086Z,13.63
2023-04-15T20:39:04.832Z,13.61
2023-04-15T20:41:31.775Z,13.62
2023-04-15T20:43:58.516Z,13.62
2023-04-15T20:46:27.322Z,13.61
2023-04-15T20:48:54.536Z,13.60
2023-04-15T20:51:21.314Z,13.60
2023-04-15T20:53:48.104Z,13.59
2023-04-15T20:56:14.698Z,13.57
2023-04-15T20:58:41.405Z,13.57
2023-04-15T21:01:08.073Z,13.54
2023-04-15T21:03:35.175Z,13.50
2023-04-15T21:06:02.066Z,13.46
2023-04-15T21:08:31.864Z,13.44
2023-04-15T21:10:58.593Z,13.40
2023-04-15T21:13:25.229Z,13.38
2023-04-15T21:15:54.363Z,13.35
2023-04-15T21:18:21.913Z,13.33
2023-04-15T21:21:02.139Z,13.33
2023-04-15T21:23:29.959Z,13.30
2023-04-15T21:25:57.639Z,13.29
2023-04-15T21:28:24.423Z,13.32
2023-04-15T21:30:51.243Z,13.34
2023-04-15T21:33:20.414Z,13.35
2023-04-15T21:35:47.537Z,13.32
2023-04-15T21:38:14.730Z,13.30
2023-04-15T21:40:41.364Z,13.27
2023-04-15T21:43:08.684Z,13.26
2023-04-15T21:45:36.513Z,13.22
2023-04-15T21:48:08.278Z,13.17
2023-04-15T21:50:36.810Z,13.12
2023-04-15T21:53:04.020Z,13.07
2023-04-15T21:55:30.627Z,13.05
2023-04-15T21:57:57.208Z,13.06
2023-04-15T22:00:24.247Z,13.06
2023-04-15T22:02:52.036Z,13.06
2023-04-15T22:05:19.071Z,13.06
2023-04-15T22:07:46.018Z,13.07
2023-04-15T22:10:12.566Z,13.08
2023-04-15T22:12:42.476Z,13.09
2023-04-15T22:15:09.372Z,13.08
2023-04-15T22:17:35.971Z,13.09
2023-04-15T22:20:03.216Z,13.07
2023-04-15T22:22:43.484Z,13.03
2023-04-15T22:25:11.934Z,13.00
2023-04-15T22:27:38.615Z,12.96
2023-04-15T22:30:06.040Z,12.93
2023-04-15T22:32:32.704Z,12.91
2023-04-15T22:34:59.323Z,12.90
2023-04-15T22:37:26.442Z,12.90
2023-04-15T22:39:53.161Z,12.90
2023-04-15T22:42:19.795Z,12.87
2023-04-15T22:44:46.737Z,12.85
2023-04-15T22:47:13.563Z,12.84
2023-04-15T22:49:41.468Z,12.80
2023-04-15T22:52:10.368Z,12.76
2023-04-15T22:54:38.879Z,12.68
2023-04-15T22:57:05.460Z,12.64
2023-04-15T22:59:32.214Z,12.59
2023-04-15T23:01:59.534Z,12.53
2023-04-15T23:04:26.964Z,12.50
2023-04-15T23:06:54.525Z,12.46
2023-04-15T23:09:21.513Z,12.40
2023-04-15T23:11:48.161Z,12.32
2023-04-15T23:14:14.749Z,12.29
2023-04-15T23:16:41.465Z,12.27
2023-04-15T23:19:08.763Z,12.19
2023-04-15T23:21:35.938Z,12.13
2023-04-15T23:24:02.646Z,12.07
2023-04-15T23:26:29.552Z,12.05
2023-04-15T23:28:56.108Z,12.06
2023-04-15T23:31:22.873Z,12.06
2023-04-15T23:33:49.580Z,12.03
2023-04-15T23:36:16.347Z,12.00
2023-04-15T23:38:43.015Z,11.97
2023-04-15T23:41:12.143Z,11.95
2023-04-15T23:43:39.161Z,11.95
2023-04-15T23:46:05.956Z,11.96
2023-04-15T23:48:32.891Z,11.99
2023-04-15T23:51:01.698Z,11.99
2023-04-15T23:53:29.966Z,12.01
2023-04-15T23:55:56.950Z,12.02
2023-04-15T23:58:24.160Z,12.05
